WAT9926 EGNS-EIDW
Flight info
| Callsign | WAT9926 |
|---|---|
| Flight time | 0h 32m |
| Altitude | 20000 |
| Route | IOM DCT NUMPI P620 NIMAT NIMAT3R |
| Aircraft | MD11/H-SDE1E2E3FGHIJ2J3J4J5M1RWXY/LB1D1 |
Departure
| Time | 2026-04-21 12:28 |
|---|---|
| Airport | Isle of Man Airport (EGNS) |
Arrival
| Time | 2026-04-21 13:01 |
|---|---|
| Airport | Dublin Airport (EIDW) |
| Time | Latitude | Longitude | Altitude | Speed | Heading |
|---|---|---|---|---|---|
| 2026-04-21 11:27 | 54.08637 | -4.63255 | 47 ft | 0 kts | 224° |
| 2026-04-21 12:13 | 54.08653 | -4.63232 | 44 ft | 4 kts | 198° |
| 2026-04-21 12:13 | 54.08664 | -4.63223 | 47 ft | 4 kts | 137° |
| 2026-04-21 12:13 | 54.08673 | -4.63252 | 44 ft | 4 kts | 110° |
| 2026-04-21 12:13 | 54.08680 | -4.63282 | 42 ft | 0 kts | 121° |
| 2026-04-21 12:18 | 54.08678 | -4.63277 | 42 ft | 2 kts | 121° |
| 2026-04-21 12:18 | 54.08668 | -4.63234 | 43 ft | 5 kts | 108° |
| 2026-04-21 12:18 | 54.08649 | -4.63173 | 48 ft | 0 kts | 129° |
| 2026-04-21 12:19 | 54.08648 | -4.63172 | 48 ft | 0 kts | 129° |
| 2026-04-21 12:20 | 54.08641 | -4.63158 | 45 ft | 4 kts | 130° |
| 2026-04-21 12:20 | 54.08612 | -4.63102 | 47 ft | 9 kts | 131° |
| 2026-04-21 12:20 | 54.08558 | -4.63029 | 47 ft | 11 kts | 161° |
| 2026-04-21 12:20 | 54.08473 | -4.62998 | 46 ft | 10 kts | 168° |
| 2026-04-21 12:21 | 54.08455 | -4.62992 | 45 ft | 0 kts | 169° |
| 2026-04-21 12:22 | 54.08426 | -4.63002 | 45 ft | 7 kts | 209° |
| 2026-04-21 12:22 | 54.08401 | -4.63099 | 46 ft | 12 kts | 257° |
| 2026-04-21 12:22 | 54.08380 | -4.63260 | 47 ft | 16 kts | 258° |
| 2026-04-21 12:22 | 54.08356 | -4.63468 | 49 ft | 19 kts | 258° |
| 2026-04-21 12:23 | 54.08315 | -4.63674 | 51 ft | 18 kts | 243° |
| 2026-04-21 12:23 | 54.08261 | -4.63840 | 47 ft | 11 kts | 240° |
| 2026-04-21 12:23 | 54.08225 | -4.63894 | 48 ft | 5 kts | 199° |
| 2026-04-21 12:23 | 54.08192 | -4.63895 | 49 ft | 3 kts | 174° |
| 2026-04-21 12:24 | 54.08237 | -4.63905 | 50 ft | 0 kts | 172° |
| 2026-04-21 12:24 | 54.08232 | -4.63904 | 50 ft | 0 kts | 172° |
| 2026-04-21 12:26 | 54.08228 | -4.63903 | 50 ft | 3 kts | 172° |
| 2026-04-21 12:26 | 54.08185 | -4.63893 | 51 ft | 11 kts | 172° |
| 2026-04-21 12:27 | 54.08145 | -4.63822 | 53 ft | 9 kts | 95° |
| 2026-04-21 12:27 | 54.08153 | -4.63764 | 48 ft | 3 kts | 75° |
| 2026-04-21 12:27 | 54.08153 | -4.63760 | 48 ft | 0 kts | 75° |
| 2026-04-21 12:27 | 54.08157 | -4.63732 | 51 ft | 10 kts | 75° |
| 2026-04-21 12:28 | 54.08212 | -4.63304 | 48 ft | 78 kts | 78° |
| 2026-04-21 12:28 | 54.08384 | -4.61937 | 57 ft | 150 kts | 78° |
| 2026-04-21 12:28 | 54.08593 | -4.60232 | 861 ft | 150 kts | 78° |
| 2026-04-21 12:28 | 54.08800 | -4.58519 | 1828 ft | 147 kts | 78° |
| 2026-04-21 12:29 | 54.09013 | -4.56792 | 2525 ft | 150 kts | 79° |
| 2026-04-21 12:29 | 54.09265 | -4.55066 | 3232 ft | 153 kts | 70° |
| 2026-04-21 12:29 | 54.10058 | -4.53585 | 3440 ft | 194 kts | 35° |
| 2026-04-21 12:29 | 54.11509 | -4.53065 | 3722 ft | 237 kts | 0° |
| 2026-04-21 12:30 | 54.13154 | -4.54131 | 4240 ft | 275 kts | 329° |
| 2026-04-21 12:30 | 54.14456 | -4.56663 | 5091 ft | 294 kts | 299° |
| 2026-04-21 12:30 | 54.14981 | -4.59997 | 6254 ft | 291 kts | 272° |
| 2026-04-21 12:30 | 54.14964 | -4.63450 | 7228 ft | 295 kts | 268° |
| 2026-04-21 12:31 | 54.14948 | -4.66941 | 8208 ft | 295 kts | 268° |
| 2026-04-21 12:31 | 54.14947 | -4.70458 | 9109 ft | 298 kts | 268° |
| 2026-04-21 12:31 | 54.14947 | -4.74016 | 9972 ft | 301 kts | 268° |
| 2026-04-21 12:31 | 54.14944 | -4.77622 | 10668 ft | 312 kts | 268° |
| 2026-04-21 12:32 | 54.14935 | -4.81497 | 10809 ft | 340 kts | 268° |
| 2026-04-21 12:32 | 54.14923 | -4.85696 | 10944 ft | 367 kts | 268° |
| 2026-04-21 12:32 | 54.14911 | -4.90117 | 11592 ft | 375 kts | 268° |
| 2026-04-21 12:32 | 54.14898 | -4.94583 | 12422 ft | 379 kts | 268° |
| 2026-04-21 12:33 | 54.14884 | -4.99097 | 13225 ft | 382 kts | 268° |
| 2026-04-21 12:33 | 54.14867 | -5.03651 | 13999 ft | 386 kts | 267° |
| 2026-04-21 12:33 | 54.14847 | -5.08255 | 14698 ft | 390 kts | 267° |
| 2026-04-21 12:33 | 54.14825 | -5.12909 | 15366 ft | 394 kts | 267° |
| 2026-04-21 12:34 | 54.14801 | -5.17595 | 16021 ft | 397 kts | 267° |
| 2026-04-21 12:34 | 54.14774 | -5.22322 | 16666 ft | 400 kts | 268° |
| 2026-04-21 12:34 | 54.14746 | -5.27079 | 17316 ft | 403 kts | 268° |
| 2026-04-21 12:34 | 54.14715 | -5.31823 | 17913 ft | 406 kts | 268° |
| 2026-04-21 12:35 | 54.14682 | -5.36731 | 18484 ft | 411 kts | 267° |
| 2026-04-21 12:35 | 54.14647 | -5.41543 | 19055 ft | 412 kts | 267° |
| 2026-04-21 12:35 | 54.14589 | -5.46442 | 19413 ft | 412 kts | 265° |
| 2026-04-21 12:35 | 54.14269 | -5.51278 | 19774 ft | 409 kts | 256° |
| 2026-04-21 12:36 | 54.13402 | -5.55865 | 20152 ft | 405 kts | 243° |
| 2026-04-21 12:36 | 54.11920 | -5.59928 | 20389 ft | 404 kts | 229° |
| 2026-04-21 12:36 | 54.09880 | -5.63227 | 20428 ft | 410 kts | 217° |
| 2026-04-21 12:36 | 54.07430 | -5.65754 | 20444 ft | 413 kts | 208° |
| 2026-04-21 12:37 | 54.04838 | -5.67874 | 20446 ft | 414 kts | 205° |
| 2026-04-21 12:37 | 54.02206 | -5.69885 | 20446 ft | 415 kts | 205° |
| 2026-04-21 12:37 | 53.99578 | -5.71901 | 20445 ft | 414 kts | 206° |
| 2026-04-21 12:37 | 53.96915 | -5.73748 | 20437 ft | 415 kts | 197° |
| 2026-04-21 12:38 | 53.94129 | -5.74699 | 20092 ft | 402 kts | 187° |
| 2026-04-21 12:38 | 53.91369 | -5.75023 | 19501 ft | 394 kts | 182° |
| 2026-04-21 12:38 | 53.88651 | -5.75121 | 18875 ft | 387 kts | 179° |
| 2026-04-21 12:38 | 53.85984 | -5.75182 | 18212 ft | 381 kts | 179° |
| 2026-04-21 12:39 | 53.83351 | -5.75267 | 17584 ft | 377 kts | 180° |
| 2026-04-21 12:39 | 53.80733 | -5.75388 | 17009 ft | 375 kts | 180° |
| 2026-04-21 12:39 | 53.78138 | -5.75536 | 16435 ft | 371 kts | 180° |
| 2026-04-21 12:39 | 53.75576 | -5.75700 | 15880 ft | 366 kts | 180° |
| 2026-04-21 12:40 | 53.73083 | -5.75869 | 15333 ft | 361 kts | 180° |
| 2026-04-21 12:40 | 53.70589 | -5.76061 | 14796 ft | 357 kts | 182° |
| 2026-04-21 12:40 | 53.68143 | -5.76718 | 14266 ft | 357 kts | 194° |
| 2026-04-21 12:40 | 53.65903 | -5.78483 | 13696 ft | 358 kts | 212° |
| 2026-04-21 12:41 | 53.64148 | -5.81453 | 13148 ft | 361 kts | 233° |
| 2026-04-21 12:41 | 53.63078 | -5.85296 | 12628 ft | 366 kts | 250° |
| 2026-04-21 12:41 | 53.62456 | -5.89454 | 12091 ft | 367 kts | 256° |
| 2026-04-21 12:41 | 53.61972 | -5.93672 | 11608 ft | 366 kts | 257° |
| 2026-04-21 12:42 | 53.61507 | -5.97852 | 11350 ft | 356 kts | 257° |
| 2026-04-21 12:42 | 53.61042 | -6.01851 | 11252 ft | 340 kts | 256° |
| 2026-04-21 12:42 | 53.60574 | -6.05666 | 11126 ft | 326 kts | 256° |
| 2026-04-21 12:42 | 53.60109 | -6.09318 | 11004 ft | 312 kts | 255° |
| 2026-04-21 12:43 | 53.59650 | -6.12831 | 10711 ft | 305 kts | 255° |
| 2026-04-21 12:43 | 53.59184 | -6.16313 | 10196 ft | 306 kts | 254° |
| 2026-04-21 12:43 | 53.58705 | -6.19827 | 9666 ft | 308 kts | 254° |
| 2026-04-21 12:43 | 53.58228 | -6.23323 | 9271 ft | 305 kts | 254° |
| 2026-04-21 12:44 | 53.57757 | -6.26785 | 8869 ft | 302 kts | 254° |
| 2026-04-21 12:44 | 53.57290 | -6.30208 | 8585 ft | 296 kts | 254° |
| 2026-04-21 12:44 | 53.56904 | -6.33542 | 8428 ft | 285 kts | 263° |
| 2026-04-21 12:44 | 53.57161 | -6.36740 | 8386 ft | 274 kts | 295° |
| 2026-04-21 12:45 | 53.58321 | -6.39199 | 8414 ft | 269 kts | 326° |
| 2026-04-21 12:45 | 53.59866 | -6.40878 | 8420 ft | 268 kts | 335° |
| 2026-04-21 12:45 | 53.61503 | -6.42369 | 8422 ft | 267 kts | 336° |
| 2026-04-21 12:45 | 53.63134 | -6.43821 | 8428 ft | 263 kts | 336° |
| 2026-04-21 12:46 | 53.64657 | -6.45526 | 8401 ft | 265 kts | 317° |
| 2026-04-21 12:46 | 53.65791 | -6.47988 | 8412 ft | 269 kts | 304° |
| 2026-04-21 12:46 | 53.66771 | -6.50673 | 8412 ft | 268 kts | 301° |
| 2026-04-21 12:46 | 53.67717 | -6.53391 | 8413 ft | 270 kts | 301° |
| 2026-04-21 12:47 | 53.68665 | -6.56141 | 8415 ft | 272 kts | 301° |
| 2026-04-21 12:47 | 53.69511 | -6.58981 | 8409 ft | 270 kts | 286° |
| 2026-04-21 12:47 | 53.69782 | -6.62100 | 8422 ft | 270 kts | 271° |
| 2026-04-21 12:47 | 53.69804 | -6.65252 | 8417 ft | 268 kts | 268° |
| 2026-04-21 12:48 | 53.69779 | -6.68390 | 8406 ft | 267 kts | 267° |
| 2026-04-21 12:48 | 53.69746 | -6.71521 | 8407 ft | 268 kts | 267° |
| 2026-04-21 12:48 | 53.69658 | -6.74666 | 8402 ft | 267 kts | 257° |
| 2026-04-21 12:48 | 53.69036 | -6.77552 | 8421 ft | 261 kts | 237° |
| 2026-04-21 12:49 | 53.68131 | -6.80214 | 8412 ft | 261 kts | 234° |
| 2026-04-21 12:49 | 53.67195 | -6.82774 | 8407 ft | 260 kts | 233° |
| 2026-04-21 12:49 | 53.66238 | -6.85360 | 8406 ft | 259 kts | 234° |
| 2026-04-21 12:49 | 53.65281 | -6.87932 | 8400 ft | 258 kts | 232° |
| 2026-04-21 12:50 | 53.64064 | -6.90067 | 8389 ft | 250 kts | 210° |
| 2026-04-21 12:50 | 53.62579 | -6.91565 | 8396 ft | 248 kts | 202° |
| 2026-04-21 12:50 | 53.61050 | -6.92914 | 8395 ft | 248 kts | 201° |
| 2026-04-21 12:50 | 53.59474 | -6.94018 | 8388 ft | 242 kts | 187° |
| 2026-04-21 12:51 | 53.57847 | -6.94072 | 8342 ft | 232 kts | 161° |
| 2026-04-21 12:51 | 53.56463 | -6.92830 | 8291 ft | 225 kts | 133° |
| 2026-04-21 12:51 | 53.55650 | -6.90651 | 8224 ft | 221 kts | 106° |
| 2026-04-21 12:51 | 53.55379 | -6.88120 | 8168 ft | 221 kts | 97° |
| 2026-04-21 12:52 | 53.55226 | -6.85571 | 8103 ft | 218 kts | 96° |
| 2026-04-21 12:52 | 53.55086 | -6.83022 | 8032 ft | 219 kts | 96° |
| 2026-04-21 12:52 | 53.54947 | -6.80462 | 7656 ft | 220 kts | 96° |
| 2026-04-21 12:52 | 53.54809 | -6.77903 | 7171 ft | 218 kts | 95° |
| 2026-04-21 12:53 | 53.54674 | -6.75386 | 6656 ft | 215 kts | 95° |
| 2026-04-21 12:53 | 53.54540 | -6.72939 | 6134 ft | 212 kts | 97° |
| 2026-04-21 12:53 | 53.54189 | -6.70563 | 5599 ft | 210 kts | 113° |
| 2026-04-21 12:53 | 53.53311 | -6.68625 | 5144 ft | 211 kts | 138° |
| 2026-04-21 12:54 | 53.51967 | -6.67587 | 4749 ft | 221 kts | 165° |
| 2026-04-21 12:54 | 53.50407 | -6.67522 | 4358 ft | 227 kts | 177° |
| 2026-04-21 12:54 | 53.48840 | -6.67640 | 4028 ft | 222 kts | 171° |
| 2026-04-21 12:54 | 53.47388 | -6.67076 | 3952 ft | 206 kts | 147° |
| 2026-04-21 12:55 | 53.46367 | -6.65676 | 3893 ft | 182 kts | 122° |
| 2026-04-21 12:55 | 53.45867 | -6.63775 | 3612 ft | 177 kts | 99° |
| 2026-04-21 12:55 | 53.45688 | -6.61724 | 3472 ft | 178 kts | 97° |
| 2026-04-21 12:55 | 53.45514 | -6.59685 | 3387 ft | 177 kts | 97° |
| 2026-04-21 12:56 | 53.45351 | -6.57662 | 3300 ft | 168 kts | 96° |
| 2026-04-21 12:56 | 53.45236 | -6.55782 | 3178 ft | 159 kts | 95° |
| 2026-04-21 12:56 | 53.45135 | -6.53948 | 3079 ft | 157 kts | 95° |
| 2026-04-21 12:56 | 53.45034 | -6.52111 | 3010 ft | 159 kts | 95° |
| 2026-04-21 12:57 | 53.44939 | -6.50288 | 3008 ft | 154 kts | 95° |
| 2026-04-21 12:57 | 53.44850 | -6.48539 | 2718 ft | 147 kts | 94° |
| 2026-04-21 12:57 | 53.44750 | -6.46828 | 2475 ft | 148 kts | 95° |
| 2026-04-21 12:57 | 53.44635 | -6.45112 | 2266 ft | 146 kts | 95° |
| 2026-04-21 12:58 | 53.44533 | -6.43496 | 2116 ft | 139 kts | 95° |
| 2026-04-21 12:58 | 53.44444 | -6.41910 | 1870 ft | 132 kts | 94° |
| 2026-04-21 12:58 | 53.44365 | -6.40398 | 1703 ft | 130 kts | 93° |
| 2026-04-21 12:58 | 53.44292 | -6.38884 | 1513 ft | 130 kts | 92° |
| 2026-04-21 12:59 | 53.44221 | -6.37376 | 1348 ft | 130 kts | 93° |
| 2026-04-21 12:59 | 53.44138 | -6.35823 | 1183 ft | 137 kts | 93° |
| 2026-04-21 12:59 | 53.44053 | -6.34219 | 1021 ft | 140 kts | 94° |
| 2026-04-21 12:59 | 53.43960 | -6.32594 | 814 ft | 138 kts | 94° |
| 2026-04-21 13:00 | 53.43878 | -6.31048 | 599 ft | 131 kts | 94° |
| 2026-04-21 13:00 | 53.43793 | -6.29510 | 400 ft | 131 kts | 94° |
| 2026-04-21 13:00 | 53.43710 | -6.28029 | 237 ft | 121 kts | 93° |
| 2026-04-21 13:00 | 53.43651 | -6.26841 | 237 ft | 85 kts | 95° |
| 2026-04-21 13:01 | 53.43605 | -6.26001 | 236 ft | 62 kts | 95° |
| 2026-04-21 13:01 | 53.43571 | -6.25382 | 231 ft | 45 kts | 95° |
| 2026-04-21 13:01 | 53.43545 | -6.24918 | 236 ft | 35 kts | 95° |
| 2026-04-21 13:01 | 53.43525 | -6.24564 | 237 ft | 27 kts | 95° |
| 2026-04-21 13:02 | 53.43511 | -6.24283 | 233 ft | 22 kts | 95° |
| 2026-04-21 13:02 | 53.43498 | -6.24060 | 231 ft | 19 kts | 95° |
| 2026-04-21 13:02 | 53.43418 | -6.23849 | 231 ft | 10 kts | 172° |
| 2026-04-21 13:03 | 53.43345 | -6.23879 | 232 ft | 11 kts | 212° |
| 2026-04-21 13:03 | 53.43323 | -6.23983 | 234 ft | 11 kts | 269° |
| 2026-04-21 13:03 | 53.43330 | -6.24143 | 236 ft | 16 kts | 274° |
| 2026-04-21 13:03 | 53.43342 | -6.24353 | 236 ft | 20 kts | 275° |
| 2026-04-21 13:04 | 53.43358 | -6.24613 | 234 ft | 24 kts | 275° |
| 2026-04-21 13:04 | 53.43374 | -6.24905 | 236 ft | 24 kts | 275° |
| 2026-04-21 13:04 | 53.43388 | -6.25177 | 236 ft | 23 kts | 275° |
| 2026-04-21 13:04 | 53.43400 | -6.25431 | 236 ft | 21 kts | 274° |
| 2026-04-21 13:05 | 53.43411 | -6.25629 | 232 ft | 13 kts | 271° |
| 2026-04-21 13:05 | 53.43391 | -6.25753 | 234 ft | 10 kts | 249° |
| 2026-04-21 13:05 | 53.43363 | -6.25866 | 231 ft | 11 kts | 240° |
| 2026-04-21 13:05 | 53.43288 | -6.25903 | 231 ft | 13 kts | 169° |
| 2026-04-21 13:06 | 53.43186 | -6.25826 | 231 ft | 18 kts | 156° |
| 2026-04-21 13:06 | 53.43061 | -6.25736 | 233 ft | 21 kts | 157° |
| 2026-04-21 13:06 | 53.42915 | -6.25629 | 235 ft | 24 kts | 156° |
| 2026-04-21 13:06 | 53.42762 | -6.25518 | 231 ft | 23 kts | 156° |
| 2026-04-21 13:07 | 53.42660 | -6.25488 | 229 ft | 12 kts | 203° |
| 2026-04-21 13:07 | 53.42598 | -6.25591 | 232 ft | 14 kts | 226° |
| 2026-04-21 13:07 | 53.42517 | -6.25728 | 235 ft | 17 kts | 225° |
| 2026-04-21 13:07 | 53.42487 | -6.25849 | 235 ft | 8 kts | 283° |
| 2026-04-21 13:08 | 53.42497 | -6.25917 | 236 ft | 10 kts | 278° |
| 2026-04-21 13:08 | 53.42508 | -6.26107 | 234 ft | 15 kts | 275° |
| 2026-04-21 13:08 | 53.42516 | -6.26245 | 232 ft | 8 kts | 275° |
| 2026-04-21 13:08 | 53.42512 | -6.26304 | 234 ft | 4 kts | 243° |
| 2026-04-21 13:09 | 53.42487 | -6.26321 | 235 ft | 4 kts | 187° |
| 2026-04-21 13:09 | 53.42452 | -6.26325 | 236 ft | 4 kts | 185° |
| 2026-04-21 13:09 | 53.42441 | -6.26327 | 236 ft | 0 kts | 185° |